createdAt,value
2017-09-09T00:00:09.021Z,99572.16
2017-09-09T00:02:38.449Z,99560.73
2017-09-09T00:05:06.788Z,99573.50
2017-09-09T00:07:35.221Z,99563.70
2017-09-09T00:10:04.723Z,99557.89
2017-09-09T00:12:33.078Z,99558.36
2017-09-09T00:15:02.591Z,99564.83
2017-09-09T00:17:31.521Z,99549.63
2017-09-09T00:20:00.763Z,99546.13
2017-09-09T00:22:29.105Z,99554.39
2017-09-09T00:24:57.795Z,99544.17
2017-09-09T00:27:26.137Z,99546.95
2017-09-09T00:29:54.514Z,99541.17
2017-09-09T00:32:23.437Z,99540.03
2017-09-09T00:34:51.811Z,99547.56
2017-09-09T00:37:20.945Z,99541.32
2017-09-09T00:39:49.910Z,99537.72
2017-09-09T00:42:19.042Z,99543.69
2017-09-09T00:44:48.601Z,99534.49
2017-09-09T00:47:18.215Z,99539.50
2017-09-09T00:49:46.674Z,99533.35
2017-09-09T00:52:15.006Z,99534.04
2017-09-09T00:54:43.684Z,99526.23
2017-09-09T00:57:12.026Z,99528.96
2017-09-09T00:59:41.131Z,99522.03
2017-09-09T01:02:10.122Z,99520.65
2017-09-09T01:04:38.495Z,99513.27
2017-09-09T01:07:06.894Z,99513.17
2017-09-09T01:09:36.397Z,99518.27
2017-09-09T01:12:05.512Z,99516.37
2017-09-09T01:14:33.878Z,99511.66
2017-09-09T01:17:03.335Z,99514.22
2017-09-09T01:19:31.885Z,99510.11
2017-09-09T01:22:00.233Z,99521.46
2017-09-09T01:24:29.141Z,99521.81
2017-09-09T01:26:58.418Z,99516.78
2017-09-09T01:29:26.751Z,99513.18
2017-09-09T01:31:55.617Z,99508.98
2017-09-09T01:34:23.950Z,99509.84
2017-09-09T01:36:52.285Z,99505.49
2017-09-09T01:39:21.743Z,99509.30
2017-09-09T01:41:50.093Z,99502.47
2017-09-09T01:44:21.196Z,99505.38
2017-09-09T01:46:50.585Z,99502.28
2017-09-09T01:49:18.960Z,99500.80
2017-09-09T01:51:47.645Z,99498.90
2017-09-09T01:54:16.993Z,99503.72
2017-09-09T01:56:45.549Z,99499.91
2017-09-09T01:59:13.908Z,99494.19
2017-09-09T02:01:42.756Z,99489.91
2017-09-09T02:04:11.436Z,99483.59
2017-09-09T02:06:40.706Z,99474.71
2017-09-09T02:09:10.592Z,99481.58
2017-09-09T02:11:38.925Z,99475.33
2017-09-09T02:14:07.279Z,99469.31
2017-09-09T02:16:37.077Z,99476.05
2017-09-09T02:19:06.795Z,99469.28
2017-09-09T02:21:35.154Z,99474.81
2017-09-09T02:24:04.542Z,99467.84
2017-09-09T02:26:32.867Z,99472.84
2017-09-09T02:29:02.043Z,99470.98
2017-09-09T02:31:30.888Z,99473.97
2017-09-09T02:33:59.240Z,99473.40
2017-09-09T02:36:27.568Z,99470.73
2017-09-09T02:38:56.316Z,99476.61
2017-09-09T02:41:24.670Z,99475.63
2017-09-09T02:43:53.015Z,99469.33
2017-09-09T02:46:22.257Z,99480.14
2017-09-09T02:48:50.622Z,99471.86
2017-09-09T02:51:18.979Z,99469.24
2017-09-09T02:53:49.246Z,99469.35
2017-09-09T02:56:18.275Z,99468.56
2017-09-09T02:58:46.632Z,99460.31
2017-09-09T03:01:16.416Z,99451.36
2017-09-09T03:03:44.785Z,99454.17
2017-09-09T03:06:13.150Z,99457.20
2017-09-09T03:08:43.346Z,99450.80
2017-09-09T03:11:11.928Z,99446.61
2017-09-09T03:13:42.162Z,99447.33
2017-09-09T03:16:11.705Z,99445.20
2017-09-09T03:18:40.058Z,99435.68
2017-09-09T03:21:09.184Z,99438.35
2017-09-09T03:23:38.680Z,99434.19
2017-09-09T03:26:07.659Z,99436.69
2017-09-09T03:28:35.997Z,99427.89
2017-09-09T03:31:05.670Z,99428.95
2017-09-09T03:33:34.032Z,99432.95
2017-09-09T03:36:02.373Z,99431.22
2017-09-09T03:38:31.040Z,99423.48
2017-09-09T03:40:59.366Z,99422.84
2017-09-09T03:43:27.699Z,99422.78
2017-09-09T03:45:57.209Z,99420.40
2017-09-09T03:48:25.886Z,99420.88
2017-09-09T03:50:55.126Z,99415.20
2017-09-09T03:53:23.761Z,99417.17
2017-09-09T03:55:52.417Z,99408.42
2017-09-09T03:58:22.700Z,99404.40
2017-09-09T04:00:52.363Z,99406.16
2017-09-09T04:03:20.711Z,99404.67
2017-09-09T04:05:49.043Z,99401.64
2017-09-09T04:08:17.802Z,99394.94
2017-09-09T04:10:46.680Z,99398.80
2017-09-09T04:13:15.049Z,99393.35
2017-09-09T04:15:44.647Z,99392.16
2017-09-09T04:18:12.983Z,99388.53
2017-09-09T04:20:41.328Z,99389.13
2017-09-09T04:23:11.594Z,99386.62
2017-09-09T04:25:40.167Z,99383.07
2017-09-09T04:28:08.545Z,99385.49
2017-09-09T04:30:38.046Z,99380.22
2017-09-09T04:33:07.136Z,99380.80
2017-09-09T04:35:36.193Z,99377.11
2017-09-09T04:38:04.813Z,99376.59
2017-09-09T04:40:33.141Z,99378.06
2017-09-09T04:43:01.527Z,99377.19
2017-09-09T04:45:30.305Z,99374.40
2017-09-09T04:47:58.672Z,99375.55
2017-09-09T04:50:27.054Z,99374.64
2017-09-09T04:52:55.814Z,99377.11
2017-09-09T04:55:24.389Z,99376.50
2017-09-09T04:57:52.963Z,99376.61
2017-09-09T05:00:21.844Z,99374.28
2017-09-09T05:02:50.230Z,99377.59
2017-09-09T05:07:55.751Z,99382.39
2017-09-09T05:10:24.504Z,99379.03
2017-09-09T05:12:52.866Z,99382.23
2017-09-09T05:15:23.402Z,99380.43
2017-09-09T05:17:52.508Z,99382.57
2017-09-09T05:20:20.856Z,99381.95
2017-09-09T05:22:50.730Z,99377.57
2017-09-09T05:25:19.089Z,99379.66
2017-09-09T05:27:48.236Z,99377.56
2017-09-09T05:30:17.354Z,99378.45
2017-09-09T05:32:46.462Z,99370.27
2017-09-09T05:35:15.680Z,99372.30
2017-09-09T05:37:44.321Z,99377.72
2017-09-09T05:40:12.686Z,99380.18
2017-09-09T05:42:41.030Z,99377.34
2017-09-09T05:45:09.626Z,99375.13
2017-09-09T05:47:37.987Z,99380.02
2017-09-09T05:50:06.322Z,99378.75
2017-09-09T05:52:36.059Z,99373.53
2017-09-09T05:55:05.154Z,99377.33
2017-09-09T05:57:34.254Z,99375.42
2017-09-09T06:00:02.920Z,99374.52
2017-09-09T06:02:32.857Z,99370.47
2017-09-09T06:05:01.215Z,99372.02
2017-09-09T06:07:29.916Z,99374.92
2017-09-09T06:09:58.260Z,99380.00
2017-09-09T06:12:27.521Z,99374.98
2017-09-09T06:14:56.453Z,99379.50
2017-09-09T06:17:24.774Z,99371.59
2017-09-09T06:19:53.119Z,99368.41
2017-09-09T06:22:22.841Z,99364.59
2017-09-09T06:24:51.202Z,99362.38
2017-09-09T06:27:19.569Z,99364.56
2017-09-09T06:29:48.201Z,99354.20
2017-09-09T06:32:16.806Z,99359.80
2017-09-09T06:34:46.130Z,99357.09
2017-09-09T06:37:16.766Z,99359.50
2017-09-09T06:39:45.645Z,99353.70
2017-09-09T06:42:14.015Z,99355.56
2017-09-09T06:44:43.340Z,99346.23
2017-09-09T06:47:11.711Z,99347.71
2017-09-09T06:49:40.827Z,99336.25
2017-09-09T06:52:14.113Z,99336.48
2017-09-09T06:54:44.001Z,99343.09
2017-09-09T06:57:12.350Z,99335.61
2017-09-09T06:59:43.041Z,99333.72
2017-09-09T07:02:12.390Z,99322.97
2017-09-09T07:04:40.729Z,99324.27
2017-09-09T07:07:09.369Z,99315.84
2017-09-09T07:09:37.739Z,99321.95
2017-09-09T07:12:06.128Z,99321.03
2017-09-09T07:14:34.817Z,99320.64
2017-09-09T07:17:03.221Z,99321.50
2017-09-09T07:19:32.527Z,99323.14
2017-09-09T07:22:01.591Z,99323.58
2017-09-09T07:24:29.964Z,99320.30
2017-09-09T07:26:58.293Z,99318.40
2017-09-09T07:29:26.967Z,99316.25
2017-09-09T07:31:55.448Z,99311.73
2017-09-09T07:34:24.987Z,99316.81
2017-09-09T07:36:55.133Z,99314.86
2017-09-09T07:39:23.494Z,99314.31
2017-09-09T07:41:52.684Z,99313.08
2017-09-09T07:44:22.208Z,99309.52
2017-09-09T07:46:50.818Z,99308.91
2017-09-09T07:49:19.153Z,99313.47
2017-09-09T07:51:48.497Z,99314.17
2017-09-09T07:54:16.821Z,99304.50
2017-09-09T07:56:45.141Z,99299.72
2017-09-09T07:59:14.809Z,99297.67
2017-09-09T08:01:43.161Z,99301.78
2017-09-09T08:04:11.504Z,99303.35
2017-09-09T08:06:40.595Z,99304.03
2017-09-09T08:09:10.641Z,99294.74
2017-09-09T08:11:38.992Z,99300.64
2017-09-09T08:14:07.883Z,99296.86
2017-09-09T08:16:36.233Z,99290.52
2017-09-09T08:19:04.562Z,99286.02
2017-09-09T08:21:33.992Z,99284.13
2017-09-09T08:24:02.348Z,99284.55
2017-09-09T08:26:31.461Z,99285.98
2017-09-09T08:29:00.428Z,99290.04
2017-09-09T08:31:29.348Z,99284.28
2017-09-09T08:33:57.705Z,99292.55
2017-09-09T08:36:26.404Z,99284.78
2017-09-09T08:38:55.358Z,99286.40
2017-09-09T08:41:24.496Z,99287.73
2017-09-09T08:43:53.140Z,99281.90
2017-09-09T08:46:21.494Z,99283.31
2017-09-09T08:48:50.971Z,99280.39
2017-09-09T08:51:21.114Z,99287.63
2017-09-09T08:53:49.451Z,99281.60
2017-09-09T08:56:17.778Z,99278.16
2017-09-09T08:58:47.034Z,99269.19
2017-09-09T09:01:15.995Z,99277.69
2017-09-09T09:03:44.608Z,99286.24
2017-09-09T09:06:13.290Z,99276.08
2017-09-09T09:08:41.650Z,99278.34
2017-09-09T09:11:10.701Z,99278.45
2017-09-09T09:13:39.862Z,99278.59
2017-09-09T09:16:08.222Z,99273.09
2017-09-09T09:18:36.553Z,99271.77
2017-09-09T09:21:05.244Z,99271.13
2017-09-09T09:23:33.592Z,99263.19
2017-09-09T09:26:01.949Z,99263.47
2017-09-09T09:28:30.901Z,99258.90
2017-09-09T09:30:59.243Z,99264.33
2017-09-09T09:33:27.593Z,99256.74
2017-09-09T09:35:58.809Z,99258.27
2017-09-09T09:38:27.280Z,99244.83
2017-09-09T09:40:55.939Z,99240.52
2017-09-09T09:43:25.178Z,99241.50
2017-09-09T09:45:54.316Z,99237.83
2017-09-09T09:48:22.638Z,99245.14
2017-09-09T09:50:51.810Z,99234.70
2017-09-09T09:53:20.250Z,99240.23
2017-09-09T09:55:48.625Z,99234.47
2017-09-09T09:58:17.378Z,99236.96
2017-09-09T10:00:46.547Z,99233.95
2017-09-09T10:03:14.894Z,99237.67
2017-09-09T10:05:44.741Z,99253.28
2017-09-09T10:08:13.104Z,99239.87
2017-09-09T10:10:41.708Z,99252.44
2017-09-09T10:13:10.382Z,99247.14
2017-09-09T10:15:39.309Z,99249.84
2017-09-09T10:18:07.629Z,99239.25
2017-09-09T10:20:37.677Z,99235.86
2017-09-09T10:23:07.188Z,99232.64
2017-09-09T10:25:35.528Z,99215.55
2017-09-09T10:28:04.948Z,99217.74
2017-09-09T10:30:33.516Z,99217.70
2017-09-09T10:33:02.960Z,99210.06
2017-09-09T10:35:31.663Z,99220.12
2017-09-09T10:38:00.092Z,99258.59
2017-09-09T10:40:28.459Z,99259.41
2017-09-09T10:42:57.457Z,99245.40
2017-09-09T10:45:25.805Z,99224.63
2017-09-09T10:47:54.155Z,99232.70
2017-09-09T10:50:23.528Z,99242.78
2017-09-09T10:52:51.913Z,99249.89
2017-09-09T10:55:20.251Z,99276.21
2017-09-09T10:57:49.141Z,99278.38
2017-09-09T11:00:17.539Z,99286.70
2017-09-09T11:02:47.435Z,99295.27
2017-09-09T11:05:17.078Z,99294.28
2017-09-09T11:07:45.453Z,99304.23
2017-09-09T11:10:15.360Z,99313.28
2017-09-09T11:12:45.916Z,99328.89
2017-09-09T11:15:15.508Z,99339.19
2017-09-09T11:17:43.869Z,99335.14
2017-09-09T11:20:13.710Z,99339.05
2017-09-09T11:22:42.767Z,99346.98
2017-09-09T11:25:11.818Z,99352.98
2017-09-09T11:27:41.524Z,99358.02
2017-09-09T11:30:10.722Z,99355.94
2017-09-09T11:32:39.148Z,99361.13
2017-09-09T11:35:08.676Z,99370.65
2017-09-09T11:37:38.589Z,99375.32
2017-09-09T11:40:07.710Z,99363.88
2017-09-09T11:42:36.403Z,99364.81
2017-09-09T11:45:05.325Z,99355.23
2017-09-09T11:47:33.718Z,99359.55
2017-09-09T11:50:03.302Z,99361.91
2017-09-09T11:52:31.706Z,99365.61
2017-09-09T11:55:00.668Z,99371.80
2017-09-09T11:57:31.428Z,99377.97
2017-09-09T12:00:00.457Z,99385.25
2017-09-09T12:02:30.777Z,99378.07
2017-09-09T12:04:59.139Z,99391.13
2017-09-09T12:07:27.478Z,99382.69
2017-09-09T12:09:57.117Z,99382.00
2017-09-09T12:12:27.703Z,99372.17
2017-09-09T12:14:57.029Z,99371.78
2017-09-09T12:17:26.620Z,99380.88
2017-09-09T12:19:55.035Z,99379.42
2017-09-09T12:22:23.365Z,99377.74
2017-09-09T12:24:52.049Z,99375.67
2017-09-09T12:27:20.396Z,99384.02
2017-09-09T12:29:49.113Z,99391.50
2017-09-09T12:32:18.150Z,99395.96
2017-09-09T12:34:47.003Z,99395.77
2017-09-09T12:37:16.045Z,99398.28
2017-09-09T12:39:44.788Z,99397.72
2017-09-09T12:42:13.402Z,99391.77
2017-09-09T12:44:42.178Z,99401.31
2017-09-09T12:47:11.059Z,99410.12
2017-09-09T12:49:39.660Z,99408.44
2017-09-09T12:52:08.074Z,99402.27
2017-09-09T12:54:36.879Z,99399.98
2017-09-09T12:57:05.474Z,99392.94
2017-09-09T12:59:33.825Z,99381.20
2017-09-09T13:02:02.497Z,99402.50
2017-09-09T13:04:32.510Z,99395.72
2017-09-09T13:07:02.502Z,99393.23
2017-09-09T13:09:31.293Z,99385.91
2017-09-09T13:11:59.632Z,99402.03
2017-09-09T13:14:28.750Z,99403.70
2017-09-09T13:16:58.779Z,99399.59
2017-09-09T13:19:27.309Z,99403.45
2017-09-09T13:21:55.664Z,99406.96
2017-09-09T13:24:24.300Z,99416.93
2017-09-09T13:26:54.301Z,99419.91
2017-09-09T13:29:23.396Z,99412.91
2017-09-09T13:31:52.248Z,99431.66
2017-09-09T13:34:20.649Z,99427.69
2017-09-09T13:36:48.977Z,99430.56
2017-09-09T13:39:17.975Z,99432.00
2017-09-09T13:41:46.349Z,99431.94
2017-09-09T13:44:16.370Z,99422.56
2017-09-09T13:46:46.599Z,99421.45
2017-09-09T13:49:14.988Z,99423.06
2017-09-09T13:51:44.155Z,99431.97
2017-09-09T13:54:14.583Z,99435.17
2017-09-09T13:56:42.985Z,99438.41
2017-09-09T13:59:11.319Z,99433.60
2017-09-09T14:01:40.019Z,99436.16
2017-09-09T14:04:09.288Z,99444.73
2017-09-09T14:06:37.646Z,99444.27
2017-09-09T14:09:06.373Z,99442.75
2017-09-09T14:11:35.429Z,99446.84
2017-09-09T14:14:04.652Z,99447.84
2017-09-09T14:16:33.298Z,99452.27
2017-09-09T14:19:01.639Z,99464.68
2017-09-09T14:21:29.995Z,99471.31
2017-09-09T14:24:01.369Z,99477.94
2017-09-09T14:26:29.702Z,99477.92
2017-09-09T14:28:58.093Z,99475.99
2017-09-09T14:31:28.174Z,99478.02
2017-09-09T14:33:56.520Z,99466.71
2017-09-09T14:36:26.692Z,99452.05
2017-09-09T14:38:55.323Z,99448.80
2017-09-09T14:41:25.379Z,99460.17
2017-09-09T14:43:53.793Z,99460.59
2017-09-09T14:46:23.539Z,99462.67
2017-09-09T14:48:52.706Z,99457.52
2017-09-09T14:51:21.710Z,99472.02
2017-09-09T14:53:50.451Z,99477.06
2017-09-09T14:56:18.851Z,99488.11
2017-09-09T14:58:48.680Z,99483.39
2017-09-09T15:01:17.551Z,99497.23
2017-09-09T15:03:46.665Z,99501.56
2017-09-09T15:06:16.624Z,99513.58
2017-09-09T15:08:45.866Z,99518.69
2017-09-09T15:11:14.244Z,99507.84
2017-09-09T15:13:43.461Z,99510.68
2017-09-09T15:16:12.176Z,99506.30
2017-09-09T15:18:41.552Z,99512.50
2017-09-09T15:21:09.963Z,99517.05
2017-09-09T15:23:40.189Z,99517.08
2017-09-09T15:26:08.699Z,99521.23
2017-09-09T15:28:37.459Z,99532.70
2017-09-09T15:31:06.953Z,99548.25
2017-09-09T15:33:35.425Z,99548.73
2017-09-09T15:36:03.839Z,99556.92
2017-09-09T15:38:32.752Z,99563.51
2017-09-09T15:41:01.175Z,99561.36
2017-09-09T15:43:29.556Z,99566.45
2017-09-09T15:45:59.216Z,99573.89
2017-09-09T15:48:27.590Z,99580.58
2017-09-09T15:50:55.947Z,99588.87
2017-09-09T15:53:25.026Z,99592.92
2017-09-09T15:55:53.467Z,99589.70
2017-09-09T15:58:21.830Z,99589.78
2017-09-09T16:00:50.788Z,99598.78
2017-09-09T16:03:19.244Z,99605.89
2017-09-09T16:05:48.049Z,99601.61
2017-09-09T16:08:16.703Z,99594.12
2017-09-09T16:10:45.102Z,99603.23
2017-09-09T16:13:13.476Z,99598.94
2017-09-09T16:15:42.259Z,99603.52
2017-09-09T16:18:10.623Z,99600.28
2017-09-09T16:20:39.047Z,99594.37
2017-09-09T16:23:07.667Z,99603.23
2017-09-09T16:25:36.009Z,99592.03
2017-09-09T16:28:04.333Z,99595.47
2017-09-09T16:30:33.065Z,99604.45
2017-09-09T16:33:02.120Z,99606.18
2017-09-09T16:35:30.451Z,99616.72
2017-09-09T16:37:59.169Z,99618.22
2017-09-09T16:40:27.510Z,99625.22
2017-09-09T16:42:56.609Z,99616.38
2017-09-09T16:45:25.466Z,99617.99
2017-09-09T16:47:53.803Z,99618.30
2017-09-09T16:50:22.903Z,99628.16
2017-09-09T16:52:52.956Z,99621.00
2017-09-09T16:55:21.308Z,99631.22
2017-09-09T16:57:49.666Z,99627.55
2017-09-09T17:00:19.331Z,99626.11
2017-09-09T17:02:48.571Z,99631.27
2017-09-09T17:05:17.671Z,99627.64
2017-09-09T17:07:46.376Z,99629.58
2017-09-09T17:10:14.713Z,99637.73
2017-09-09T17:12:43.062Z,99639.23
2017-09-09T17:15:11.874Z,99640.56
2017-09-09T17:17:40.251Z,99634.67
2017-09-09T17:20:08.581Z,99641.20
2017-09-09T17:22:37.344Z,99643.64
2017-09-09T17:25:06.518Z,99652.74
2017-09-09T17:27:34.869Z,99662.17
2017-09-09T17:30:03.618Z,99665.73
2017-09-09T17:32:33.347Z,99673.36
2017-09-09T17:35:02.663Z,99672.42
2017-09-09T17:37:31.330Z,99679.23
2017-09-09T17:40:00.369Z,99676.52
2017-09-09T17:42:28.733Z,99676.95
2017-09-09T17:44:57.665Z,99676.17
2017-09-09T17:47:26.789Z,99687.77
2017-09-09T17:49:55.125Z,99681.33
2017-09-09T17:52:24.054Z,99689.77
2017-09-09T17:54:52.410Z,99692.34
2017-09-09T17:57:21.522Z,99696.81
2017-09-09T17:59:51.169Z,99696.16
2017-09-09T18:02:19.938Z,99694.53
2017-09-09T18:04:48.267Z,99701.83
2017-09-09T18:07:16.969Z,99704.16
2017-09-09T18:09:45.329Z,99713.81
2017-09-09T18:12:13.684Z,99723.33
2017-09-09T18:14:42.302Z,99726.76
2017-09-09T18:17:10.696Z,99729.59
2017-09-09T18:19:40.222Z,99733.25
2017-09-09T18:22:09.728Z,99744.94
2017-09-09T18:24:38.084Z,99752.86
2017-09-09T18:27:07.688Z,99755.92
2017-09-09T18:29:37.023Z,99753.67
2017-09-09T18:32:05.377Z,99759.94
2017-09-09T18:34:34.487Z,99759.41
2017-09-09T18:37:03.886Z,99771.44
2017-09-09T18:39:32.864Z,99770.25
2017-09-09T18:42:01.282Z,99767.75
2017-09-09T18:44:29.947Z,99767.82
2017-09-09T18:46:58.803Z,99771.17
2017-09-09T18:49:27.172Z,99766.93
2017-09-09T18:51:56.238Z,99768.73
2017-09-09T18:54:25.531Z,99772.73
2017-09-09T18:56:53.888Z,99779.22
2017-09-09T18:59:24.707Z,99778.20
2017-09-09T19:01:53.052Z,99787.41
2017-09-09T19:04:21.419Z,99789.55
2017-09-09T19:06:50.162Z,99786.95
2017-09-09T19:09:19.406Z,99793.19
2017-09-09T19:11:47.743Z,99796.30
2017-09-09T19:14:16.588Z,99796.88
2017-09-09T19:16:44.937Z,99804.04
2017-09-09T19:19:14.079Z,99807.76
2017-09-09T19:21:42.684Z,99817.67
2017-09-09T19:24:11.013Z,99815.44
2017-09-09T19:26:39.354Z,99817.56
2017-09-09T19:29:08.804Z,99813.14
2017-09-09T19:31:37.137Z,99819.22
2017-09-09T19:34:06.230Z,99818.77
2017-09-09T19:36:35.030Z,99824.95
2017-09-09T19:39:04.797Z,99834.05
2017-09-09T19:41:33.143Z,99833.74
2017-09-09T19:44:02.099Z,99832.34
2017-09-09T19:46:30.641Z,99832.23
2017-09-09T19:48:59.000Z,99835.77
2017-09-09T19:51:27.683Z,99840.02
2017-09-09T19:53:56.050Z,99836.70
2017-09-09T19:56:24.614Z,99842.70
2017-09-09T19:58:54.075Z,99846.50
2017-09-09T20:01:23.034Z,99841.53
2017-09-09T20:03:52.171Z,99844.72
2017-09-09T20:06:21.026Z,99837.27
2017-09-09T20:08:49.401Z,99841.30
2017-09-09T20:11:17.745Z,99845.85
2017-09-09T20:13:46.376Z,99839.38
2017-09-09T20:16:15.088Z,99842.48
2017-09-09T20:18:43.443Z,99840.13
2017-09-09T20:21:13.265Z,99839.66
2017-09-09T20:23:42.028Z,99839.45
2017-09-09T20:26:10.380Z,99840.27
2017-09-09T20:28:39.716Z,99836.71
2017-09-09T20:31:08.041Z,99841.42
2017-09-09T20:33:36.736Z,99843.47
2017-09-09T20:36:05.394Z,99838.65
2017-09-09T20:38:34.720Z,99840.66
2017-09-09T20:41:04.603Z,99840.02
2017-09-09T20:43:34.242Z,99844.91
2017-09-09T20:46:02.565Z,99849.48
2017-09-09T20:48:32.104Z,99857.84
2017-09-09T20:51:00.810Z,99861.10
2017-09-09T20:53:29.137Z,99853.09
2017-09-09T20:55:58.120Z,99854.83
2017-09-09T20:58:27.168Z,99853.84
2017-09-09T21:00:56.270Z,99852.44
2017-09-09T21:03:24.981Z,99849.44
2017-09-09T21:05:53.716Z,99859.58
2017-09-09T21:08:22.072Z,99864.90
2017-09-09T21:10:51.178Z,99861.33
2017-09-09T21:13:20.030Z,99858.89
2017-09-09T21:15:49.167Z,99858.84
2017-09-09T21:18:17.520Z,99874.22
2017-09-09T21:20:46.275Z,99874.79
2017-09-09T21:23:14.625Z,99865.92
2017-09-09T21:25:42.969Z,99862.57
2017-09-09T21:28:11.720Z,99857.09
2017-09-09T21:30:40.068Z,99859.78
2017-09-09T21:33:09.186Z,99861.45
2017-09-09T21:35:37.811Z,99863.59
2017-09-09T21:38:06.985Z,99865.48
2017-09-09T21:40:35.333Z,99863.28
2017-09-09T21:43:04.862Z,99869.27
2017-09-09T21:45:34.027Z,99876.47
2017-09-09T21:48:02.392Z,99873.42
2017-09-09T21:50:31.206Z,99875.28
2017-09-09T21:52:59.563Z,99882.20
2017-09-09T21:55:27.915Z,99882.57
2017-09-09T21:57:57.558Z,99883.60
2017-09-09T22:00:26.923Z,99883.09
2017-09-09T22:02:55.258Z,99887.13
2017-09-09T22:05:23.993Z,99886.27
2017-09-09T22:07:52.339Z,99890.38
2017-09-09T22:10:20.687Z,99893.11
2017-09-09T22:12:49.890Z,99897.70
2017-09-09T22:15:20.385Z,99895.08
2017-09-09T22:17:49.502Z,99895.21
2017-09-09T22:20:18.215Z,99896.80
2017-09-09T22:22:46.555Z,99898.30
2017-09-09T22:25:15.661Z,99904.00
2017-09-09T22:27:44.434Z,99901.85
2017-09-09T22:30:13.363Z,99915.70
2017-09-09T22:32:41.714Z,99914.62
2017-09-09T22:35:10.505Z,99914.53
2017-09-09T22:37:38.857Z,99913.34
2017-09-09T22:40:08.006Z,99916.38
2017-09-09T22:42:36.695Z,99912.20
2017-09-09T22:45:06.411Z,99915.91
2017-09-09T22:47:35.244Z,99911.02
2017-09-09T22:50:04.100Z,99923.98
2017-09-09T22:52:32.458Z,99920.05
2017-09-09T22:55:00.813Z,99931.08
2017-09-09T22:57:30.602Z,99929.19
2017-09-09T22:59:58.984Z,99926.89
2017-09-09T23:02:28.614Z,99924.77
2017-09-09T23:04:57.961Z,99928.37
2017-09-09T23:07:26.477Z,99921.42
2017-09-09T23:09:56.249Z,99920.22
2017-09-09T23:12:24.879Z,99920.84
2017-09-09T23:14:54.020Z,99916.56
2017-09-09T23:17:23.540Z,99930.29
2017-09-09T23:19:52.279Z,99937.06
2017-09-09T23:22:21.454Z,99937.90
2017-09-09T23:24:51.240Z,99939.03
2017-09-09T23:27:20.272Z,99939.32
2017-09-09T23:29:48.645Z,99933.70
2017-09-09T23:32:20.277Z,99935.38
2017-09-09T23:34:48.961Z,99937.36
2017-09-09T23:37:18.213Z,99939.59
2017-09-09T23:39:46.566Z,99938.95
2017-09-09T23:42:15.461Z,99947.58
2017-09-09T23:44:44.456Z,99947.53
2017-09-09T23:47:13.654Z,99957.72
2017-09-09T23:49:43.815Z,99951.86
2017-09-09T23:52:12.359Z,99954.16
2017-09-09T23:54:40.726Z,99949.13
2017-09-09T23:57:09.353Z,99940.41
2017-09-09T23:59:37.686Z,99946.70
